createdAt,value
2024-04-12T00:02:30.662Z,1.67
2024-04-12T00:04:59.821Z,2.33
2024-04-12T00:07:26.984Z,2.03
2024-04-12T00:09:55.822Z,2.00
2024-04-12T00:12:29.600Z,2.22
2024-04-12T00:15:02.805Z,2.10
2024-04-12T00:17:33.057Z,1.48
2024-04-12T00:20:21.314Z,2.50
2024-04-12T00:22:50.221Z,2.08
2024-04-12T00:25:16.997Z,2.67
2024-04-12T00:30:10.657Z,1.95
2024-04-12T00:32:37.969Z,2.20
2024-04-12T00:35:07.967Z,2.08
2024-04-12T00:37:35.286Z,2.35
2024-04-12T00:40:02.012Z,1.90
2024-04-12T00:45:04.419Z,1.80
2024-04-12T00:47:35.264Z,1.73
2024-04-12T00:50:04.955Z,2.13
2024-04-12T00:52:35.391Z,2.10
2024-04-12T00:55:10.423Z,2.17
2024-04-12T00:57:39.040Z,1.85
2024-04-12T01:00:11.938Z,1.75
2024-04-12T01:02:43.587Z,1.67
2024-04-12T01:05:16.123Z,1.92
2024-04-12T01:07:52.767Z,1.90
2024-04-12T01:10:26.371Z,1.77
2024-04-12T01:12:58.734Z,2.20
2024-04-12T01:15:38.874Z,2.17
2024-04-12T01:18:13.536Z,1.65
2024-04-12T01:20:41.437Z,1.98
2024-04-12T01:23:08.297Z,2.05
2024-04-12T01:30:32.943Z,1.95
2024-04-12T01:33:00.438Z,2.63
2024-04-12T01:35:35.228Z,3.05
2024-04-12T01:38:21.828Z,2.58
2024-04-12T01:41:06.670Z,2.30
2024-04-12T01:43:39.639Z,2.80
2024-04-12T01:46:09.235Z,1.70
2024-04-12T01:48:37.546Z,2.00
2024-04-12T01:51:05.487Z,2.15
2024-04-12T01:53:39.223Z,2.63
2024-04-12T01:56:06.444Z,2.67
2024-04-12T01:58:35.563Z,2.17
2024-04-12T02:01:05.133Z,2.33
2024-04-12T02:03:35.461Z,3.20
2024-04-12T02:06:06.692Z,2.92
2024-04-12T02:08:34.553Z,2.22
2024-04-12T02:11:07.309Z,2.10
2024-04-12T02:13:38.987Z,2.40
2024-04-12T02:16:07.147Z,2.50
2024-04-12T02:18:35.255Z,2.30
2024-04-12T02:21:11.899Z,2.50
2024-04-12T02:23:40.128Z,2.55
2024-04-12T02:26:06.840Z,2.72
2024-04-12T02:28:41.289Z,3.40
2024-04-12T02:46:42.397Z,2.83
2024-04-12T02:49:13.079Z,2.10
2024-04-12T02:51:48.749Z,2.42
2024-04-12T02:54:15.877Z,2.28
2024-04-12T02:56:45.943Z,2.53
2024-04-12T02:59:15.139Z,2.78
2024-04-12T03:01:42.516Z,2.40
2024-04-12T03:04:11.425Z,3.20
2024-04-12T03:06:39.617Z,2.17
2024-04-12T03:09:07.004Z,2.15
2024-04-12T03:11:37.539Z,2.15
2024-04-12T03:14:12.009Z,2.63
2024-04-12T03:16:43.907Z,2.63
2024-04-12T03:19:19.507Z,2.85
2024-04-12T03:21:52.429Z,3.13
2024-04-12T03:24:19.795Z,2.92
2024-04-12T03:29:18.182Z,2.30
2024-04-12T03:31:48.530Z,2.50
2024-04-12T03:34:16.005Z,2.88
2024-04-12T03:36:48.599Z,3.03
2024-04-12T03:39:24.369Z,3.00
2024-04-12T03:41:52.724Z,3.20
2024-04-12T03:44:22.336Z,2.30
2024-04-12T03:46:52.280Z,2.80
2024-04-12T03:49:23.422Z,2.78
2024-04-12T03:51:55.601Z,4.15
2024-04-12T03:54:24.044Z,3.58
2024-04-12T03:56:51.668Z,2.38
2024-04-12T03:59:19.522Z,3.33
2024-04-12T04:01:47.118Z,2.33
2024-04-12T04:04:18.519Z,2.80
2024-04-12T04:06:47.320Z,3.78
2024-04-12T04:09:14.650Z,4.28
2024-04-12T04:11:43.853Z,3.60
2024-04-12T04:14:11.252Z,4.68
2024-04-12T04:16:38.113Z,4.03
2024-04-12T04:19:05.093Z,4.50
2024-04-12T04:21:34.575Z,4.35
2024-04-12T04:24:10.009Z,4.25
2024-04-12T04:26:38.119Z,4.38
2024-04-12T04:29:10.688Z,3.70
2024-04-12T04:31:51.486Z,4.68
2024-04-12T04:34:23.607Z,4.55
2024-04-12T04:36:51.075Z,3.70
2024-04-12T04:39:19.057Z,4.15
2024-04-12T04:41:51.391Z,4.07
2024-04-12T04:44:18.889Z,4.30
2024-04-12T04:46:50.511Z,3.67
2024-04-12T04:49:22.932Z,4.75
2024-04-12T04:51:52.564Z,4.30
2024-04-12T04:54:22.969Z,3.90
2024-04-12T04:57:03.109Z,4.03
2024-04-12T04:59:33.793Z,4.07
2024-04-12T05:02:02.131Z,4.35
2024-04-12T05:04:33.873Z,4.82
2024-04-12T05:07:00.541Z,4.15
2024-04-12T05:09:28.895Z,3.78
2024-04-12T05:11:58.650Z,3.67
2024-04-12T05:14:36.028Z,4.20
2024-04-12T05:17:11.003Z,4.50
2024-04-12T05:19:42.559Z,4.90
2024-04-12T05:22:39.844Z,5.10
2024-04-12T05:25:06.791Z,3.25
2024-04-12T05:27:34.331Z,4.47
2024-04-12T05:30:02.838Z,5.28
2024-04-12T05:32:34.348Z,4.32
2024-04-12T05:35:03.150Z,4.93
2024-04-12T05:37:37.317Z,4.65
2024-04-12T05:40:06.157Z,5.15
2024-04-12T05:42:32.800Z,5.00
2024-04-12T05:45:05.992Z,5.25
2024-04-12T05:47:41.714Z,5.32
2024-04-12T05:50:08.614Z,5.53
2024-04-12T05:52:36.674Z,6.45
2024-04-12T05:55:12.124Z,5.85
2024-04-12T05:57:38.865Z,5.55
2024-04-12T06:02:38.932Z,5.72
2024-04-12T06:05:47.232Z,6.53
2024-04-12T06:08:16.821Z,6.88
2024-04-12T06:10:50.337Z,7.03
2024-04-12T06:13:18.702Z,7.47
2024-04-12T06:15:48.177Z,7.72
2024-04-12T06:18:33.116Z,7.00
2024-04-12T06:29:11.561Z,6.32
2024-04-12T06:31:42.936Z,6.78
2024-04-12T06:34:14.345Z,6.68
2024-04-12T06:36:47.050Z,6.78
2024-04-12T06:39:27.578Z,5.75
2024-04-12T06:41:55.337Z,7.15
2024-04-12T06:44:58.757Z,6.95
2024-04-12T06:47:27.307Z,7.03
2024-04-12T06:50:16.428Z,6.10
2024-04-12T06:52:43.193Z,7.10
2024-04-12T06:57:45.780Z,7.20
2024-04-12T07:00:21.655Z,6.80
2024-04-12T07:03:17.793Z,7.32
2024-04-12T07:05:49.076Z,6.68
2024-04-12T07:08:17.703Z,5.65
2024-04-12T07:10:50.049Z,6.25
2024-04-12T07:13:18.026Z,5.55
2024-04-12T07:15:50.728Z,5.70
2024-04-12T07:18:18.006Z,6.63
2024-04-12T07:20:50.104Z,6.20
2024-04-12T07:23:17.326Z,6.47
2024-04-12T07:25:46.936Z,6.35
2024-04-12T07:28:16.927Z,6.10
2024-04-12T07:30:45.931Z,6.38
2024-04-12T07:33:13.999Z,5.97
2024-04-12T07:35:41.846Z,6.90
2024-04-12T07:38:09.709Z,5.85
2024-04-12T07:40:41.249Z,7.57
2024-04-12T07:43:12.284Z,7.53
2024-04-12T07:45:42.075Z,6.20
2024-04-12T07:48:21.604Z,6.32
2024-04-12T07:50:48.688Z,7.03
2024-04-12T07:53:24.611Z,7.10
2024-04-12T07:56:16.902Z,6.15
2024-04-12T07:59:17.824Z,8.20
2024-04-12T08:01:50.347Z,6.30
2024-04-12T08:04:27.294Z,6.63
2024-04-12T08:06:58.794Z,6.03
2024-04-12T08:09:36.598Z,8.32
2024-04-12T08:12:17.041Z,7.43
2024-04-12T08:14:54.914Z,7.72
2024-04-12T08:17:41.501Z,8.05
2024-04-12T08:20:27.017Z,7.70
2024-04-12T08:22:56.855Z,7.68
2024-04-12T08:25:28.499Z,7.07
2024-04-12T08:27:56.156Z,7.63
2024-04-12T08:30:23.577Z,7.10
2024-04-12T08:32:50.995Z,8.85
2024-04-12T08:35:22.072Z,8.68
2024-04-12T08:37:52.952Z,8.02
2024-04-12T08:40:26.421Z,10.80
2024-04-12T08:42:58.788Z,9.27
2024-04-12T08:45:31.819Z,9.63
2024-04-12T08:48:04.674Z,9.40
2024-04-12T08:50:37.044Z,9.88
2024-04-12T08:53:14.501Z,9.38
2024-04-12T08:55:44.104Z,9.43
2024-04-12T08:58:12.314Z,10.25
2024-04-12T09:00:40.974Z,11.30
2024-04-12T09:03:29.018Z,11.43
2024-04-12T09:06:00.946Z,10.00
2024-04-12T09:08:32.744Z,11.02
2024-04-12T09:11:08.186Z,10.57
2024-04-12T09:13:48.318Z,10.57
2024-04-12T09:16:20.754Z,11.57
2024-04-12T09:18:52.499Z,10.48
2024-04-12T09:24:32.828Z,10.52
2024-04-12T09:27:10.174Z,10.88
2024-04-12T09:29:45.165Z,10.90
2024-04-12T09:32:31.465Z,9.38
2024-04-12T09:35:03.769Z,9.85
2024-04-12T09:37:31.933Z,8.43
2024-04-12T09:40:02.984Z,8.75
2024-04-12T09:42:54.697Z,9.05
2024-04-12T09:45:23.889Z,8.60
2024-04-12T09:48:11.020Z,9.07
2024-04-12T09:51:05.549Z,8.02
2024-04-12T09:53:51.214Z,8.60
2024-04-12T09:56:36.489Z,7.80
2024-04-12T09:59:40.601Z,8.32
2024-04-12T10:02:28.918Z,8.68
2024-04-12T10:05:20.087Z,9.40
2024-04-12T10:08:05.658Z,8.55
2024-04-12T10:10:51.077Z,8.18
2024-04-12T10:13:36.860Z,8.85
2024-04-12T10:16:47.247Z,8.75
2024-04-12T10:19:33.067Z,8.07
2024-04-12T10:22:34.432Z,7.93
2024-04-12T10:25:23.922Z,7.82
2024-04-12T10:28:12.437Z,8.00
2024-04-12T10:31:05.459Z,7.63
2024-04-12T10:34:25.861Z,7.88
2024-04-12T10:37:13.223Z,7.10
2024-04-12T10:39:46.656Z,7.43
2024-04-12T10:42:27.465Z,7.53
2024-04-12T10:49:05.726Z,6.32
2024-04-12T10:51:37.263Z,7.00
2024-04-12T10:54:05.987Z,6.47
2024-04-12T10:56:32.936Z,7.43
2024-04-12T10:59:45.652Z,5.30
2024-04-12T11:02:12.723Z,5.85
2024-04-12T11:05:00.677Z,5.70
2024-04-12T11:07:28.990Z,5.35
2024-04-12T11:10:04.960Z,5.80
2024-04-12T11:12:47.286Z,5.95
2024-04-12T11:15:34.038Z,6.00
2024-04-12T11:18:23.794Z,5.88
2024-04-12T11:21:21.127Z,6.93
2024-04-12T11:24:23.286Z,6.60
2024-04-12T11:27:08.681Z,5.57
2024-04-12T11:30:09.761Z,5.60
2024-04-12T11:32:38.842Z,5.28
2024-04-12T11:35:06.774Z,5.75
2024-04-12T11:37:33.534Z,5.40
2024-04-12T11:40:05.305Z,5.97
2024-04-12T11:42:34.273Z,5.70
2024-04-12T11:46:16.041Z,5.35
2024-04-12T11:48:44.537Z,5.03
2024-04-12T11:51:11.498Z,5.35
2024-04-12T11:53:39.264Z,5.15
2024-04-12T11:56:06.168Z,5.82
2024-04-12T11:58:32.782Z,5.00
2024-04-12T12:08:41.919Z,5.38
2024-04-12T12:11:15.396Z,4.50
2024-04-12T12:13:45.622Z,4.65
2024-04-12T12:16:19.909Z,4.57
2024-04-12T12:18:46.756Z,4.13
2024-04-12T12:21:15.449Z,4.10
2024-04-12T12:29:43.739Z,4.00
2024-04-12T12:32:10.887Z,3.08
2024-04-12T12:38:34.163Z,4.00
2024-04-12T12:41:01.392Z,3.38
2024-04-12T12:43:31.070Z,3.30
2024-04-12T12:46:01.535Z,3.60
2024-04-12T12:48:31.314Z,4.30
2024-04-12T12:50:58.930Z,3.45
2024-04-12T12:54:16.866Z,3.72
2024-04-12T12:57:40.023Z,3.42
2024-04-12T13:00:08.207Z,4.07
2024-04-12T13:02:39.722Z,3.22
2024-04-12T13:05:32.387Z,3.40
2024-04-12T13:08:00.160Z,3.60
2024-04-12T13:10:28.967Z,2.80
2024-04-12T13:13:29.045Z,3.60
2024-04-12T13:15:55.898Z,3.55
2024-04-12T13:22:17.364Z,3.30
2024-04-12T13:24:45.281Z,3.75
2024-04-12T13:27:16.258Z,3.08
2024-04-12T13:37:56.591Z,3.28
2024-04-12T13:48:10.097Z,3.42
2024-04-12T13:50:55.898Z,3.67
2024-04-12T13:53:35.164Z,3.10
2024-04-12T13:56:34.421Z,2.65
2024-04-12T13:59:06.178Z,3.40
2024-04-12T14:09:32.993Z,3.28
2024-04-12T14:11:59.631Z,3.55
2024-04-12T14:14:26.323Z,3.13
2024-04-12T14:20:21.943Z,3.08
2024-04-12T14:23:42.319Z,3.17
2024-04-12T14:26:10.869Z,3.60
2024-04-12T14:28:40.689Z,3.40
2024-04-12T14:31:10.615Z,3.67
2024-04-12T14:33:39.951Z,3.33
2024-04-12T14:36:55.418Z,3.45
2024-04-12T14:39:30.854Z,3.22
2024-04-12T14:41:58.372Z,2.58
2024-04-12T14:44:25.348Z,3.30
2024-04-12T14:46:55.880Z,2.83
2024-04-12T14:53:25.161Z,3.40
2024-04-12T14:55:54.411Z,2.47
2024-04-12T14:58:23.413Z,2.60
2024-04-12T15:04:55.484Z,3.08
2024-04-12T15:07:43.864Z,3.72
2024-04-12T15:10:29.770Z,2.78
2024-04-12T15:19:42.798Z,2.58
2024-04-12T15:25:35.117Z,2.45
2024-04-12T15:28:20.463Z,2.03
2024-04-12T15:34:04.915Z,2.15
2024-04-12T15:37:05.544Z,2.30
2024-04-12T15:39:50.815Z,2.70
2024-04-12T15:42:40.094Z,2.30
2024-04-12T15:45:25.982Z,2.58
2024-04-12T15:47:55.883Z,2.30
2024-04-12T15:50:22.599Z,2.30
2024-04-12T15:56:06.802Z,2.20
2024-04-12T15:59:26.415Z,2.20
2024-04-12T16:04:57.337Z,1.90
2024-04-12T16:07:42.741Z,2.03
2024-04-12T16:10:31.340Z,2.33
2024-04-12T16:13:03.745Z,2.35
2024-04-12T16:15:33.191Z,2.35
2024-04-12T16:18:38.911Z,2.38
2024-04-12T16:21:05.841Z,2.55
2024-04-12T16:23:35.704Z,2.75
2024-04-12T16:26:08.887Z,3.42
2024-04-12T16:28:38.997Z,2.67
2024-04-12T16:31:12.647Z,2.95
2024-04-12T16:33:40.025Z,2.92
2024-04-12T16:36:08.049Z,2.70
2024-04-12T16:42:43.748Z,2.75
2024-04-12T16:49:07.861Z,3.78
2024-04-12T16:51:51.799Z,3.65
2024-04-12T16:54:18.598Z,3.47
2024-04-12T16:56:48.359Z,4.15
2024-04-12T17:00:16.514Z,4.07
2024-04-12T17:03:55.767Z,4.07
2024-04-12T17:06:25.298Z,4.65
2024-04-12T17:09:11.897Z,4.85
2024-04-12T17:11:39.504Z,4.57
2024-04-12T17:14:06.755Z,3.92
2024-04-12T17:20:36.179Z,4.85
2024-04-12T17:23:13.070Z,4.15
2024-04-12T17:25:44.554Z,4.07
2024-04-12T17:28:18.999Z,4.03
2024-04-12T17:31:01.668Z,3.90
2024-04-12T17:33:31.141Z,5.22
2024-04-12T17:35:58.714Z,3.30
2024-04-12T17:42:12.993Z,3.47
2024-04-12T17:48:04.156Z,3.50
2024-04-12T17:50:32.864Z,3.13
2024-04-12T17:54:02.620Z,3.60
2024-04-12T17:56:29.316Z,3.40
2024-04-12T18:01:24.341Z,3.33
2024-04-12T18:04:10.850Z,3.05
2024-04-12T18:06:39.838Z,3.92
2024-04-12T18:09:54.020Z,3.28
2024-04-12T18:12:20.800Z,3.30
2024-04-12T18:14:47.509Z,3.83
2024-04-12T18:21:39.906Z,3.42
2024-04-12T18:24:06.678Z,3.00
2024-04-12T18:28:59.997Z,3.22
2024-04-12T18:34:28.609Z,3.10
2024-04-12T18:37:33.679Z,2.67
2024-04-12T18:40:35.048Z,2.78
2024-04-12T18:43:31.264Z,2.88
2024-04-12T18:46:02.678Z,2.85
2024-04-12T18:48:55.388Z,2.95
2024-04-12T18:51:41.200Z,2.40
2024-04-12T18:54:15.974Z,3.08
2024-04-12T18:56:42.782Z,3.00
2024-04-12T19:02:15.888Z,3.00
2024-04-12T19:04:48.973Z,2.40
2024-04-12T19:07:20.883Z,2.42
2024-04-12T19:10:18.608Z,2.78
2024-04-12T19:16:16.977Z,3.10
2024-04-12T19:18:46.606Z,3.13
2024-04-12T19:21:13.953Z,2.65
2024-04-12T19:23:40.800Z,3.38
2024-04-12T19:40:12.875Z,3.70
2024-04-12T19:54:38.664Z,3.42
2024-04-12T19:57:41.006Z,3.85
2024-04-12T20:01:36.128Z,4.20
2024-04-12T20:11:29.709Z,4.35
2024-04-12T21:11:30.603Z,3.90
2024-04-12T21:14:20.636Z,4.63
2024-04-12T21:17:10.174Z,4.22
2024-04-12T21:23:43.586Z,4.70
2024-04-12T21:26:34.513Z,4.22
2024-04-12T21:29:09.219Z,4.72
2024-04-12T21:31:49.107Z,4.68
2024-04-12T21:34:18.988Z,4.65
2024-04-12T21:36:46.398Z,5.18
2024-04-12T21:39:24.117Z,4.72
2024-04-12T21:42:02.339Z,4.63
2024-04-12T21:44:42.099Z,5.82
2024-04-12T21:47:22.003Z,4.72
2024-04-12T21:53:44.257Z,4.90
2024-04-12T21:56:27.402Z,4.45
2024-04-12T21:59:16.317Z,4.25
2024-04-12T22:01:53.896Z,4.88
2024-04-12T22:04:37.706Z,4.53
2024-04-12T22:07:53.195Z,4.72
2024-04-12T22:10:44.229Z,4.53
2024-04-12T22:21:24.328Z,4.50
2024-04-12T22:24:04.296Z,4.07
2024-04-12T22:28:02.741Z,4.45
2024-04-12T22:29:43.262Z,4.00
2024-04-12T22:32:30.370Z,4.10
2024-04-12T22:35:04.622Z,4.03
2024-04-12T22:49:54.620Z,4.18
2024-04-12T22:56:36.013Z,4.57
2024-04-12T22:59:13.294Z,3.75
2024-04-12T23:04:39.855Z,4.07
2024-04-12T23:07:42.029Z,4.03
2024-04-12T23:17:28.856Z,3.55
2024-04-12T23:26:47.893Z,3.65
2024-04-12T23:33:35.860Z,3.60
2024-04-12T23:36:04.438Z,4.28
2024-04-12T23:38:31.220Z,3.65
2024-04-12T23:44:49.066Z,4.03
2024-04-12T23:47:15.956Z,4.38
2024-04-12T23:49:43.110Z,3.40
2024-04-12T23:52:09.841Z,3.72
2024-04-12T23:58:03.867Z,4.03
